Terminal Aerodrome Forecast
Issued by NWS Wichita, KS

Home | Current Version | Previous Version | Text Only | Print | Product List | Glossary Off
Versions: 1 2 3 4 5 6 7 8 9 10 11 12 13 14 15 16 17 18 19 20 21 22

395
FTUS43 KICT 232331
TAFICT
TAF
KICT 232331Z 2400/2424 17018G25KT P6SM SCT050
     FM240100 17014KT P6SM VCTS SCT050CB
     FM240300 18013KT P6SM SCT100 WS020/22045KT
     FM241200 19013KT P6SM VCSH BKN080
     FM241500 20016G24KT P6SM VCSH BKN080
     FM241800 20017G25KT P6SM SCT060=

USA.gov is the U.S. government's official web portal to all federal, state and local government web resources and services.